Sunday, July 22, 2018, 7:50 PM EDT
Back to Local

KMFV, Melfa / Accomack Airport

Location: Melfa, VA, United States Lat: 37.65
Local Time: 7:50 PM EDT (23:50 GMT) Lon: -75.767
Time Zone: US/Eastern Elev: 49 ft

Show me the last for .
Show Coded

Time T Td Feel RH Dir Speed Gust Alt SLP Vis Weather Sky Remarks
2018-07-22 19:35 80 77 88 89 140° 14 22 29.84 - 10 OVC011 None
2018-07-22 19:15 82 77 90 86 140° 16 24 29.84 - 10 BKN011 None
2018-07-22 18:55 81 77 89 88 150° 14 24 29.84 - 10 OVC011 None
2018-07-22 18:35 76 71 80 83 110° 6 - 29.85 - 10 OVC011 None
2018-07-22 18:15 76 71 80 82 260° 6 - 29.86 - 10 OVC011 None
2018-07-22 17:55 82 77 90 86 180° 12 21 29.86 - 10 OVC011 None
2018-07-22 17:35 82 77 91 85 160° 13 21 29.86 - 10 OVC011 None
2018-07-22 17:15 82 77 92 84 160° 16 25 29.84 - 10 OVC011 None
2018-07-22 16:55 82 77 90 86 150° 16 23 29.84 - 10 OVC013 None
2018-07-22 16:35 84 77 94 80 140° 15 21 29.83 - 10 OVC013 None
2018-07-22 16:15 83 77 93 81 150° 16 24 29.82 - 10 OVC015 None
2018-07-22 15:55 84 77 94 80 160° 13 26 29.83 - 10 BKN015 None
2018-07-22 15:35 85 77 95 79 160° 16 25 29.82 - 10 BKN013 None
2018-07-22 15:15 83 78 93 83 150° 15 21 29.82 - 10 OVC015 None
2018-07-22 14:55 84 77 94 78 160° 14 26 29.82 - 10 OVC017 None
2018-07-22 14:35 85 76 94 75 150° 21 29 29.82 - 10 BKN017 None
2018-07-22 14:15 84 77 94 78 140° 20 25 29.82 - 10 BKN015 None
2018-07-22 13:55 83 77 93 81 150° 15 25 29.83 - 10 SCT011 BKN120 6-hr Min Temp (2pm): 73.2°F
6-hr Max Temp (2pm): 84.2°F
2018-07-22 13:35 80 76 87 88 130° 14 18 29.83 - 10 BKN011 OVC120 None
2018-07-22 13:15 80 76 87 87 140° 15 18 29.84 - 10 BKN011 OVC120 None
2018-07-22 12:55 81 76 88 86 130° 15 22 29.84 - 10 SCT013 SCT019 BKN120 None
2018-07-22 12:35 83 76 91 80 140° 17 23 29.84 - 10 BKN015 BKN023 BKN120 None
2018-07-22 12:15 83 76 92 77 150° 14 22 29.84 - 10 BKN015 None
2018-07-22 11:55 83 76 92 80 160° 13 17 29.85 - 10 BKN015 BKN025 OVC041 None
2018-07-22 11:35 82 75 89 80 150° 13 - 29.85 - 10 BKN015 OVC020 None
2018-07-22 11:15 81 76 89 83 160° 13 - 29.85 - 10 OVC015 None
2018-07-22 10:55 80 76 88 87 150° 12 17 29.85 - 10 BKN011 OVC017 None
2018-07-22 10:35 80 76 87 88 150° 9 17 29.85 - 10 OVC009 None
2018-07-22 10:15 80 76 87 88 160° 10 16 29.85 - 10 OVC009 None
2018-07-22 09:55 78 75 84 90 150° 6 - 29.85 - 10 OVC009 None
2018-07-22 09:35 78 74 83 86 120° 5 - 29.85 - 10 OVC011 None
2018-07-22 09:15 76 73 80 88 130° 6 - 29.84 - 10 OVC011 None
2018-07-22 08:55 75 71 79 87 120° 5 - 29.84 - 10 OVC013 None
2018-07-22 08:35 75 71 79 87 130° 7 - 29.84 - 10 BKN013 BKN018 None
2018-07-22 08:15 74 71 78 88 130° 5 - 29.83 - 10 SCT015 BKN023 None
2018-07-22 07:55 73 70 77 90 130° 3 - 29.82 - 10 SCT018 OVC023 24-hr Precip Total (8am): 1.24"
6-hr Min Temp (8am): 68.0°F
6-hr Max Temp (8am): 72.9°F
2018-07-22 07:35 71 69 76 92 130° 5 - 29.82 - 10 OVC018 None
2018-07-22 07:15 71 69 76 94 130° 6 - 29.81 - 10 OVC020 None
2018-07-22 06:55 70 68 - 95 150° 5 - 29.81 - 10 BKN022 BKN026 BKN032 None
2018-07-22 06:35 69 68 - 95 140° 5 - 29.81 - 10 OVC026 None
2018-07-22 06:15 69 68 - 96 180° 3 - 29.80 - 10 OVC024 None
2018-07-22 05:55 68 67 - 96 170° 5 - 29.80 - 10 BKN026 BKN037 None
2018-07-22 05:35 68 67 - 96 190° 6 - 29.79 - 10 SCT011 BKN028 None
2018-07-22 05:15 68 67 - 96 160° 3 - 29.79 - 10 OVC011 None
2018-07-22 04:55 68 67 - 95 - Calm - 29.79 - 10 BKN011 None
2018-07-22 04:35 69 67 - 94 200° 5 - 29.78 - 10 SCT011 None
2018-07-22 04:15 69 67 - 94 200° 6 - 29.78 - 10 BKN011 None
2018-07-22 03:55 70 67 - 91 230° 6 - 29.77 - 10 SCT011 None
2018-07-22 03:35 70 67 - 91 240° 9 - 29.77 - 10 OVC011 None
2018-07-22 03:15 70 67 76 90 220° 12 18 29.76 - 10 OVC011 None
2018-07-22 02:55 70 67 76 90 240° 9 - 29.75 - 10 OVC011 None
2018-07-22 02:35 71 67 76 88 240° 15 21 29.74 - 10 OVC013 None
2018-07-22 02:15 70 67 76 90 240° 12 17 29.74 - 10 OVC013 None
2018-07-22 01:55 70 67 76 91 240° 15 23 29.73 - 10 OVC013 6-hr Precip Total (2am): 0.08"
6-hr Min Temp (2am): 69.4°F
6-hr Max Temp (2am): 76.3°F
2018-07-22 01:35 70 67 76 90 240° 15 24 29.72 - 10 OVC013 None
2018-07-22 01:15 70 67 - 91 240° 16 22 29.72 - 10 OVC011 None
2018-07-22 00:55 70 67 - 91 240° 14 24 29.71 - 10 OVC009 24-hr Min Temp (1am): 68.9°F
24-hr Max Temp (1am): 77.4°F
2018-07-22 00:35 70 68 - 94 230° 13 21 29.70 - 10 OVC007 None
2018-07-22 00:15 69 68 - 95 240° 10 22 29.69 - 10 OVC007 None
2018-07-21 23:55 70 68 - 94 230° 20 28 29.68 - 10 OVC007 None
2018-07-21 23:35 70 69 - 96 220° 18 28 29.68 - 10 OVC007 None
2018-07-21 23:15 70 69 76 95 230° 20 28 29.67 - 10 OVC005 None
2018-07-21 22:55 71 70 76 96 230° 15 25 29.66 - 10 OVC005 1-hr Precip Total: 0.03"
6-hr Precip Total (11pm): 0.08"
2018-07-21 22:35 72 71 77 97 220° 16 29 29.64 - 4 -RA OVC005 1-hr Precip Total: 0.02"
2018-07-21 22:15 73 72 77 97 230° 16 24 29.63 - 2 -RA OVC005 1-hr Precip Total: 0.01"
2018-07-21 21:55 75 74 80 96 220° 23 26 29.62 - 3 RA OVC005 1-hr Precip Total: 0.04"
2018-07-21 21:35 76 75 81 97 210° 12 16 29.60 - 7 OVC005 None
2018-07-21 21:15 76 75 82 97 200° 7 - 29.58 - 7 BKN007 BKN011 BKN015 None
2018-07-21 20:55 76 75 82 97 220° 7 - 29.58 - 5 -DZ BKN005 BKN010 OVC023 1-hr Precip Total: 0.01"
2018-07-21 20:35 76 75 82 97 150° 6 - 29.58 - 7 BKN007 OVC010 None
2018-07-21 20:15 76 75 81 96 100° 3 - 29.58 - 10 BKN007 OVC010 None
2018-07-21 19:55 76 75 82 96 110° 7 - 29.58 - 7 OVC005 6-hr Precip Total (8pm): 0.09"
6-hr Min Temp (8pm): 75.2°F
6-hr Max Temp (8pm): 77.0°F

Support USWX by starting your Amazon purchase here.